Decoded Metar for PWAK (WAKE ISLAND AIRF in _UNIDENTIFIED) (IATA:N/A) | Meteo·Mobile Aviation Weather
aviador You're here:

PWAK Decoded Metar

WAKE ISLAND AIRF in _UNIDENTIFIED
Report Time2018-10-22 22:58:00
UTC Time2018-10-22 23:53:01
Flight Rules vfr VFR
Wind070° at 13 kt
W.Decomp.*RWY 10: 10.4 kt HW 7.8 kt LCW
W.Rank070° ranks 1
Current wind is above 070° avg. (12.8)
Visibility9999 m
Phenomena:N/A
Clouds:Scattered 023 Hf
Scattered 029 Hf
Broken 037 Hf
Expected CloudBase > 2,400 ft AGL from Temp-Dew spread
Ceiling3,700 ft
Temp30°C (ISA +15)
Dew Point24°C (70% RH)
Heat Index35.0°C
QNH1013 hPa
Density Alt2,126 ft
Elevation13 ft
Report Wrong Elevation
Raw Report
PWAK 222258Z AUTO 07013KT 9999 SCT023 SCT029 BKN037 30/24 A2992
RMK AO2 SLP138=

Extra information for PWAK:More info

Metar Taf Metar & Taf Last 4 Metars F.Rules Stats Wind Profile Meteogram Temp Stats Airport Information Weather charts Add Link Nearby VenuesMetar ALERT Operation Metar Decoded Social comments